sensor_id;sensor_type;location;lat;lon;timestamp;P1;durP1;ratioP1;P2;durP2;ratioP2
77085;SDS011;66014;53.134;18.006;2023-03-05T00:06:32;48.50;;;19.30;;
77085;SDS011;66014;53.134;18.006;2023-03-05T00:08:58;31.20;;;11.40;;
77085;SDS011;66014;53.134;18.006;2023-03-05T00:11:25;37.50;;;12.80;;
77085;SDS011;66014;53.134;18.006;2023-03-05T00:13:54;34.70;;;11.70;;
77085;SDS011;66014;53.134;18.006;2023-03-05T00:16:22;26.90;;;8.20;;
77085;SDS011;66014;53.134;18.006;2023-03-05T00:18:51;28.30;;;8.00;;
77085;SDS011;66014;53.134;18.006;2023-03-05T00:21:19;30.20;;;9.10;;
77085;SDS011;66014;53.134;18.006;2023-03-05T00:23:45;39.20;;;12.30;;
77085;SDS011;66014;53.134;18.006;2023-03-05T00:26:15;40.60;;;11.90;;
77085;SDS011;66014;53.134;18.006;2023-03-05T00:28:42;25.70;;;9.10;;
77085;SDS011;66014;53.134;18.006;2023-03-05T00:31:08;65.20;;;28.50;;
77085;SDS011;66014;53.134;18.006;2023-03-05T00:33:34;48.40;;;19.90;;
77085;SDS011;66014;53.134;18.006;2023-03-05T00:36:03;34.40;;;10.50;;
77085;SDS011;66014;53.134;18.006;2023-03-05T00:38:30;27.20;;;8.50;;
77085;SDS011;66014;53.134;18.006;2023-03-05T00:40:57;17.00;;;5.20;;
77085;SDS011;66014;53.134;18.006;2023-03-05T00:43:23;19.90;;;7.00;;
77085;SDS011;66014;53.134;18.006;2023-03-05T00:45:49;27.30;;;8.00;;
77085;SDS011;66014;53.134;18.006;2023-03-05T00:48:15;23.90;;;9.10;;
77085;SDS011;66014;53.134;18.006;2023-03-05T00:50:41;17.00;;;5.10;;
77085;SDS011;66014;53.134;18.006;2023-03-05T00:53:06;20.80;;;5.00;;
77085;SDS011;66014;53.134;18.006;2023-03-05T00:55:32;17.30;;;6.30;;
77085;SDS011;66014;53.134;18.006;2023-03-05T00:58:00;21.70;;;6.10;;
77085;SDS011;66014;53.134;18.006;2023-03-05T01:00:29;21.10;;;6.50;;
77085;SDS011;66014;53.134;18.006;2023-03-05T01:02:55;17.90;;;5.80;;
77085;SDS011;66014;53.134;18.006;2023-03-05T01:05:21;13.90;;;4.90;;
77085;SDS011;66014;53.134;18.006;2023-03-05T01:07:47;17.10;;;5.90;;
77085;SDS011;66014;53.134;18.006;2023-03-05T01:10:18;16.90;;;6.40;;
77085;SDS011;66014;53.134;18.006;2023-03-05T01:12:44;14.10;;;5.50;;
77085;SDS011;66014;53.134;18.006;2023-03-05T01:15:10;12.40;;;5.60;;
77085;SDS011;66014;53.134;18.006;2023-03-05T01:17:36;11.60;;;4.70;;
77085;SDS011;66014;53.134;18.006;2023-03-05T01:20:03;16.50;;;6.00;;
77085;SDS011;66014;53.134;18.006;2023-03-05T01:22:30;14.20;;;5.60;;
77085;SDS011;66014;53.134;18.006;2023-03-05T01:24:56;9.70;;;3.80;;
77085;SDS011;66014;53.134;18.006;2023-03-05T01:27:24;11.20;;;3.80;;
77085;SDS011;66014;53.134;18.006;2023-03-05T01:29:56;8.70;;;3.70;;
77085;SDS011;66014;53.134;18.006;2023-03-05T01:32:22;13.30;;;4.20;;
77085;SDS011;66014;53.134;18.006;2023-03-05T01:34:48;13.20;;;4.10;;
77085;SDS011;66014;53.134;18.006;2023-03-05T01:37:16;14.40;;;4.70;;
77085;SDS011;66014;53.134;18.006;2023-03-05T01:39:44;11.50;;;3.70;;
77085;SDS011;66014;53.134;18.006;2023-03-05T01:42:28;12.50;;;3.80;;
77085;SDS011;66014;53.134;18.006;2023-03-05T02:01:37;7.30;;;2.90;;
77085;SDS011;66014;53.134;18.006;2023-03-05T02:04:53;8.40;;;2.90;;
77085;SDS011;66014;53.134;18.006;2023-03-05T02:11:04;7.60;;;2.60;;
77085;SDS011;66014;53.134;18.006;2023-03-05T02:39:20;6.30;;;2.40;;
77085;SDS011;66014;53.134;18.006;2023-03-05T02:51:49;3.40;;;1.50;;
77085;SDS011;66014;53.134;18.006;2023-03-05T02:54:32;3.90;;;1.90;;
77085;SDS011;66014;53.134;18.006;2023-03-05T02:57:18;4.30;;;1.90;;
77085;SDS011;66014;53.134;18.006;2023-03-05T02:59:44;5.40;;;2.20;;
77085;SDS011;66014;53.134;18.006;2023-03-05T03:02:11;5.40;;;1.70;;
77085;SDS011;66014;53.134;18.006;2023-03-05T03:04:37;5.70;;;2.20;;
77085;SDS011;66014;53.134;18.006;2023-03-05T03:07:03;7.80;;;2.30;;
77085;SDS011;66014;53.134;18.006;2023-03-05T03:09:29;6.90;;;2.60;;
77085;SDS011;66014;53.134;18.006;2023-03-05T03:11:58;5.00;;;1.60;;
77085;SDS011;66014;53.134;18.006;2023-03-05T03:14:24;5.40;;;1.90;;
77085;SDS011;66014;53.134;18.006;2023-03-05T03:16:50;4.10;;;2.30;;
77085;SDS011;66014;53.134;18.006;2023-03-05T03:19:15;5.50;;;1.70;;
77085;SDS011;66014;53.134;18.006;2023-03-05T03:21:41;9.50;;;3.90;;
77085;SDS011;66014;53.134;18.006;2023-03-05T03:24:07;6.70;;;3.20;;
77085;SDS011;66014;53.134;18.006;2023-03-05T03:26:33;5.30;;;2.50;;
77085;SDS011;66014;53.134;18.006;2023-03-05T03:28:59;9.00;;;2.50;;
77085;SDS011;66014;53.134;18.006;2023-03-05T03:31:25;4.90;;;2.00;;
77085;SDS011;66014;53.134;18.006;2023-03-05T03:33:50;5.50;;;2.10;;
77085;SDS011;66014;53.134;18.006;2023-03-05T03:36:17;5.40;;;1.80;;
77085;SDS011;66014;53.134;18.006;2023-03-05T03:38:46;6.50;;;2.10;;
77085;SDS011;66014;53.134;18.006;2023-03-05T03:41:11;4.40;;;2.20;;
77085;SDS011;66014;53.134;18.006;2023-03-05T03:43:38;9.10;;;2.40;;
77085;SDS011;66014;53.134;18.006;2023-03-05T03:46:04;3.00;;;1.10;;
77085;SDS011;66014;53.134;18.006;2023-03-05T03:48:31;6.70;;;2.00;;
77085;SDS011;66014;53.134;18.006;2023-03-05T03:50:58;5.20;;;2.10;;
77085;SDS011;66014;53.134;18.006;2023-03-05T03:53:23;6.30;;;2.70;;
77085;SDS011;66014;53.134;18.006;2023-03-05T03:55:49;5.40;;;2.10;;
77085;SDS011;66014;53.134;18.006;2023-03-05T03:58:15;9.80;;;3.00;;
77085;SDS011;66014;53.134;18.006;2023-03-05T04:00:41;10.70;;;3.90;;
77085;SDS011;66014;53.134;18.006;2023-03-05T04:03:07;5.50;;;1.80;;
77085;SDS011;66014;53.134;18.006;2023-03-05T04:05:34;8.90;;;2.40;;
77085;SDS011;66014;53.134;18.006;2023-03-05T04:07:59;6.60;;;2.50;;
77085;SDS011;66014;53.134;18.006;2023-03-05T04:10:26;6.30;;;2.40;;
77085;SDS011;66014;53.134;18.006;2023-03-05T04:12:52;5.60;;;1.90;;
77085;SDS011;66014;53.134;18.006;2023-03-05T04:15:18;5.40;;;3.00;;
77085;SDS011;66014;53.134;18.006;2023-03-05T04:17:44;7.60;;;2.60;;
77085;SDS011;66014;53.134;18.006;2023-03-05T04:20:10;4.60;;;2.20;;
77085;SDS011;66014;53.134;18.006;2023-03-05T04:22:36;3.60;;;1.50;;
77085;SDS011;66014;53.134;18.006;2023-03-05T04:25:03;6.30;;;2.50;;
77085;SDS011;66014;53.134;18.006;2023-03-05T04:27:31;6.60;;;2.20;;
77085;SDS011;66014;53.134;18.006;2023-03-05T04:29:59;4.00;;;1.70;;
77085;SDS011;66014;53.134;18.006;2023-03-05T04:32:25;6.50;;;2.40;;
77085;SDS011;66014;53.134;18.006;2023-03-05T04:34:54;6.10;;;2.30;;
77085;SDS011;66014;53.134;18.006;2023-03-05T04:37:21;6.60;;;2.20;;
77085;SDS011;66014;53.134;18.006;2023-03-05T04:39:48;8.60;;;2.10;;
77085;SDS011;66014;53.134;18.006;2023-03-05T04:42:13;6.50;;;1.70;;
77085;SDS011;66014;53.134;18.006;2023-03-05T04:44:39;11.70;;;2.30;;
77085;SDS011;66014;53.134;18.006;2023-03-05T04:47:05;7.80;;;2.70;;
77085;SDS011;66014;53.134;18.006;2023-03-05T04:49:31;4.90;;;2.20;;
77085;SDS011;66014;53.134;18.006;2023-03-05T04:55:57;7.70;;;2.70;;
77085;SDS011;66014;53.134;18.006;2023-03-05T05:01:30;5.60;;;1.90;;
77085;SDS011;66014;53.134;18.006;2023-03-05T05:03:57;7.40;;;2.60;;
77085;SDS011;66014;53.134;18.006;2023-03-05T05:06:27;4.70;;;2.20;;
77085;SDS011;66014;53.134;18.006;2023-03-05T05:08:55;5.90;;;2.00;;
77085;SDS011;66014;53.134;18.006;2023-03-05T05:28:50;6.80;;;2.40;;
77085;SDS011;66014;53.134;18.006;2023-03-05T05:31:18;8.20;;;2.60;;
77085;SDS011;66014;53.134;18.006;2023-03-05T05:37:33;10.10;;;3.10;;
77085;SDS011;66014;53.134;18.006;2023-03-05T05:39:59;10.10;;;2.20;;
77085;SDS011;66014;53.134;18.006;2023-03-05T05:53:14;11.70;;;4.50;;
77085;SDS011;66014;53.134;18.006;2023-03-05T05:55:40;15.10;;;6.60;;
77085;SDS011;66014;53.134;18.006;2023-03-05T06:09:01;15.60;;;7.50;;
77085;SDS011;66014;53.134;18.006;2023-03-05T06:11:42;5.60;;;3.40;;
77085;SDS011;66014;53.134;18.006;2023-03-05T06:14:23;6.30;;;3.00;;
77085;SDS011;66014;53.134;18.006;2023-03-05T06:16:48;4.40;;;2.00;;
77085;SDS011;66014;53.134;18.006;2023-03-05T06:19:14;4.90;;;2.50;;
77085;SDS011;66014;53.134;18.006;2023-03-05T06:21:42;6.80;;;2.20;;
77085;SDS011;66014;53.134;18.006;2023-03-05T06:24:08;8.40;;;3.50;;
77085;SDS011;66014;53.134;18.006;2023-03-05T06:26:35;8.20;;;3.70;;
77085;SDS011;66014;53.134;18.006;2023-03-05T06:29:02;13.80;;;7.40;;
77085;SDS011;66014;53.134;18.006;2023-03-05T06:31:28;9.60;;;3.80;;
77085;SDS011;66014;53.134;18.006;2023-03-05T06:33:56;8.40;;;3.70;;
77085;SDS011;66014;53.134;18.006;2023-03-05T06:38:53;19.60;;;9.20;;
77085;SDS011;66014;53.134;18.006;2023-03-05T06:41:21;12.50;;;5.30;;
77085;SDS011;66014;53.134;18.006;2023-03-05T06:43:49;21.60;;;10.40;;
77085;SDS011;66014;53.134;18.006;2023-03-05T06:46:16;19.80;;;10.60;;
77085;SDS011;66014;53.134;18.006;2023-03-05T06:48:44;32.20;;;18.00;;
77085;SDS011;66014;53.134;18.006;2023-03-05T06:51:15;11.50;;;6.50;;
77085;SDS011;66014;53.134;18.006;2023-03-05T06:53:46;23.90;;;12.60;;
77085;SDS011;66014;53.134;18.006;2023-03-05T06:56:13;22.70;;;13.40;;
77085;SDS011;66014;53.134;18.006;2023-03-05T06:58:41;41.00;;;22.10;;
77085;SDS011;66014;53.134;18.006;2023-03-05T07:01:09;24.20;;;14.00;;
77085;SDS011;66014;53.134;18.006;2023-03-05T07:03:35;11.50;;;6.10;;
77085;SDS011;66014;53.134;18.006;2023-03-05T07:06:07;19.40;;;9.40;;
77085;SDS011;66014;53.134;18.006;2023-03-05T07:09:12;12.30;;;4.80;;
77085;SDS011;66014;53.134;18.006;2023-03-05T07:11:39;15.00;;;6.60;;
77085;SDS011;66014;53.134;18.006;2023-03-05T07:14:05;10.90;;;4.90;;
77085;SDS011;66014;53.134;18.006;2023-03-05T07:16:32;8.60;;;3.10;;
77085;SDS011;66014;53.134;18.006;2023-03-05T07:19:00;8.60;;;3.90;;
77085;SDS011;66014;53.134;18.006;2023-03-05T07:21:29;13.60;;;5.40;;
77085;SDS011;66014;53.134;18.006;2023-03-05T07:24:06;13.10;;;4.60;;
77085;SDS011;66014;53.134;18.006;2023-03-05T07:26:40;10.70;;;4.50;;
77085;SDS011;66014;53.134;18.006;2023-03-05T07:29:06;8.50;;;4.60;;
77085;SDS011;66014;53.134;18.006;2023-03-05T07:31:34;9.60;;;4.90;;
77085;SDS011;66014;53.134;18.006;2023-03-05T07:34:01;14.80;;;6.70;;
77085;SDS011;66014;53.134;18.006;2023-03-05T07:38:59;20.20;;;10.00;;
77085;SDS011;66014;53.134;18.006;2023-03-05T07:41:26;19.70;;;6.80;;
77085;SDS011;66014;53.134;18.006;2023-03-05T07:43:52;20.10;;;9.60;;
77085;SDS011;66014;53.134;18.006;2023-03-05T07:46:20;22.30;;;10.30;;
77085;SDS011;66014;53.134;18.006;2023-03-05T07:48:48;26.80;;;14.80;;
77085;SDS011;66014;53.134;18.006;2023-03-05T07:51:18;29.00;;;14.60;;
77085;SDS011;66014;53.134;18.006;2023-03-05T07:53:45;67.20;;;24.40;;
77085;SDS011;66014;53.134;18.006;2023-03-05T07:56:12;30.00;;;13.40;;
77085;SDS011;66014;53.134;18.006;2023-03-05T07:58:38;20.40;;;10.00;;
77085;SDS011;66014;53.134;18.006;2023-03-05T08:01:11;14.00;;;6.00;;
77085;SDS011;66014;53.134;18.006;2023-03-05T08:03:39;23.40;;;11.40;;
77085;SDS011;66014;53.134;18.006;2023-03-05T08:06:06;21.50;;;9.00;;
77085;SDS011;66014;53.134;18.006;2023-03-05T08:08:32;14.60;;;6.30;;
77085;SDS011;66014;53.134;18.006;2023-03-05T08:11:05;14.10;;;6.70;;
77085;SDS011;66014;53.134;18.006;2023-03-05T08:13:33;14.20;;;5.40;;
77085;SDS011;66014;53.134;18.006;2023-03-05T08:16:10;11.20;;;5.00;;
77085;SDS011;66014;53.134;18.006;2023-03-05T08:18:41;16.20;;;7.50;;
77085;SDS011;66014;53.134;18.006;2023-03-05T08:21:14;32.60;;;13.90;;
77085;SDS011;66014;53.134;18.006;2023-03-05T08:23:42;22.90;;;8.50;;
77085;SDS011;66014;53.134;18.006;2023-03-05T08:26:12;25.80;;;9.40;;
77085;SDS011;66014;53.134;18.006;2023-03-05T08:28:40;16.40;;;6.50;;
77085;SDS011;66014;53.134;18.006;2023-03-05T08:31:09;21.40;;;7.90;;
77085;SDS011;66014;53.134;18.006;2023-03-05T08:33:37;28.70;;;10.50;;
77085;SDS011;66014;53.134;18.006;2023-03-05T08:36:03;23.00;;;9.50;;
77085;SDS011;66014;53.134;18.006;2023-03-05T08:38:30;34.30;;;14.20;;
77085;SDS011;66014;53.134;18.006;2023-03-05T08:40:58;10.70;;;5.30;;
77085;SDS011;66014;53.134;18.006;2023-03-05T08:46:04;17.80;;;10.60;;
77085;SDS011;66014;53.134;18.006;2023-03-05T08:48:35;16.70;;;8.30;;
77085;SDS011;66014;53.134;18.006;2023-03-05T08:51:08;22.50;;;9.50;;
77085;SDS011;66014;53.134;18.006;2023-03-05T08:53:41;25.50;;;10.60;;
77085;SDS011;66014;53.134;18.006;2023-03-05T08:56:09;21.50;;;8.20;;
77085;SDS011;66014;53.134;18.006;2023-03-05T08:58:35;26.30;;;13.30;;
77085;SDS011;66014;53.134;18.006;2023-03-05T09:01:01;24.00;;;10.80;;
77085;SDS011;66014;53.134;18.006;2023-03-05T09:03:28;22.70;;;7.90;;
77085;SDS011;66014;53.134;18.006;2023-03-05T09:05:57;16.70;;;6.90;;
77085;SDS011;66014;53.134;18.006;2023-03-05T09:10:51;13.70;;;6.30;;
77085;SDS011;66014;53.134;18.006;2023-03-05T09:13:16;22.10;;;9.90;;
77085;SDS011;66014;53.134;18.006;2023-03-05T09:15:42;13.80;;;7.10;;
77085;SDS011;66014;53.134;18.006;2023-03-05T09:18:08;69.20;;;34.40;;
77085;SDS011;66014;53.134;18.006;2023-03-05T09:20:34;27.40;;;16.10;;
77085;SDS011;66014;53.134;18.006;2023-03-05T09:23:01;74.60;;;45.80;;
77085;SDS011;66014;53.134;18.006;2023-03-05T09:25:28;24.70;;;13.10;;
77085;SDS011;66014;53.134;18.006;2023-03-05T09:27:54;12.20;;;5.80;;
77085;SDS011;66014;53.134;18.006;2023-03-05T09:30:20;21.50;;;9.00;;
77085;SDS011;66014;53.134;18.006;2023-03-05T09:32:46;12.30;;;6.70;;
77085;SDS011;66014;53.134;18.006;2023-03-05T09:35:12;16.50;;;7.50;;
77085;SDS011;66014;53.134;18.006;2023-03-05T09:37:38;12.10;;;7.80;;
77085;SDS011;66014;53.134;18.006;2023-03-05T09:40:04;12.20;;;7.40;;
77085;SDS011;66014;53.134;18.006;2023-03-05T09:48:11;16.10;;;6.60;;
77085;SDS011;66014;53.134;18.006;2023-03-05T09:50:46;18.50;;;9.00;;
77085;SDS011;66014;53.134;18.006;2023-03-05T09:56:10;16.20;;;8.40;;
77085;SDS011;66014;53.134;18.006;2023-03-05T09:58:42;11.20;;;5.90;;
77085;SDS011;66014;53.134;18.006;2023-03-05T10:01:16;10.30;;;5.70;;
77085;SDS011;66014;53.134;18.006;2023-03-05T10:04:03;16.70;;;7.70;;
77085;SDS011;66014;53.134;18.006;2023-03-05T10:09:40;13.70;;;6.30;;
77085;SDS011;66014;53.134;18.006;2023-03-05T10:12:25;14.80;;;6.00;;
77085;SDS011;66014;53.134;18.006;2023-03-05T10:15:11;16.70;;;6.60;;
77085;SDS011;66014;53.134;18.006;2023-03-05T10:17:45;25.70;;;9.60;;
77085;SDS011;66014;53.134;18.006;2023-03-05T10:23:27;30.70;;;12.00;;
77085;SDS011;66014;53.134;18.006;2023-03-05T10:26:04;47.20;;;19.20;;
77085;SDS011;66014;53.134;18.006;2023-03-05T10:31:50;26.80;;;12.60;;
77085;SDS011;66014;53.134;18.006;2023-03-05T10:34:35;39.00;;;17.30;;
77085;SDS011;66014;53.134;18.006;2023-03-05T10:40:10;24.10;;;11.90;;
77085;SDS011;66014;53.134;18.006;2023-03-05T10:45:31;19.20;;;10.70;;
77085;SDS011;66014;53.134;18.006;2023-03-05T10:56:40;40.40;;;18.20;;
77085;SDS011;66014;53.134;18.006;2023-03-05T10:59:06;22.40;;;11.20;;
77085;SDS011;66014;53.134;18.006;2023-03-05T11:01:32;22.10;;;13.10;;
77085;SDS011;66014;53.134;18.006;2023-03-05T11:04:02;16.20;;;8.00;;
77085;SDS011;66014;53.134;18.006;2023-03-05T11:06:34;22.90;;;13.60;;
77085;SDS011;66014;53.134;18.006;2023-03-05T11:11:40;28.80;;;11.50;;
77085;SDS011;66014;53.134;18.006;2023-03-05T11:14:08;22.40;;;9.80;;
77085;SDS011;66014;53.134;18.006;2023-03-05T11:16:54;25.40;;;11.30;;
77085;SDS011;66014;53.134;18.006;2023-03-05T11:22:12;27.20;;;9.60;;
77085;SDS011;66014;53.134;18.006;2023-03-05T11:24:41;12.90;;;5.70;;
77085;SDS011;66014;53.134;18.006;2023-03-05T11:33:14;13.00;;;5.60;;
77085;SDS011;66014;53.134;18.006;2023-03-05T11:35:47;14.80;;;7.30;;
77085;SDS011;66014;53.134;18.006;2023-03-05T11:40:52;11.50;;;6.30;;
77085;SDS011;66014;53.134;18.006;2023-03-05T11:43:22;11.60;;;5.60;;
77085;SDS011;66014;53.134;18.006;2023-03-05T11:45:54;22.50;;;12.50;;
77085;SDS011;66014;53.134;18.006;2023-03-05T11:48:44;13.30;;;6.90;;
77085;SDS011;66014;53.134;18.006;2023-03-05T11:51:16;15.90;;;8.10;;
77085;SDS011;66014;53.134;18.006;2023-03-05T11:53:53;24.10;;;14.40;;
77085;SDS011;66014;53.134;18.006;2023-03-05T11:56:24;11.50;;;7.00;;
77085;SDS011;66014;53.134;18.006;2023-03-05T12:01:33;11.90;;;7.70;;
77085;SDS011;66014;53.134;18.006;2023-03-05T12:04:06;11.40;;;5.30;;
77085;SDS011;66014;53.134;18.006;2023-03-05T12:06:34;10.00;;;6.50;;
77085;SDS011;66014;53.134;18.006;2023-03-05T12:11:47;7.90;;;3.80;;
77085;SDS011;66014;53.134;18.006;2023-03-05T12:14:28;8.90;;;5.10;;
77085;SDS011;66014;53.134;18.006;2023-03-05T12:17:07;10.80;;;5.10;;
77085;SDS011;66014;53.134;18.006;2023-03-05T12:19:45;49.50;;;29.00;;
77085;SDS011;66014;53.134;18.006;2023-03-05T12:22:41;11.40;;;5.50;;
77085;SDS011;66014;53.134;18.006;2023-03-05T12:25:23;8.10;;;4.10;;
77085;SDS011;66014;53.134;18.006;2023-03-05T12:31:04;12.90;;;6.10;;
77085;SDS011;66014;53.134;18.006;2023-03-05T12:33:37;13.10;;;6.20;;
77085;SDS011;66014;53.134;18.006;2023-03-05T12:38:54;12.60;;;5.70;;
77085;SDS011;66014;53.134;18.006;2023-03-05T12:46:35;11.20;;;5.50;;
77085;SDS011;66014;53.134;18.006;2023-03-05T12:51:44;15.00;;;6.60;;
77085;SDS011;66014;53.134;18.006;2023-03-05T13:02:34;14.10;;;7.10;;
77085;SDS011;66014;53.134;18.006;2023-03-05T13:07:53;18.50;;;8.00;;
77085;SDS011;66014;53.134;18.006;2023-03-05T13:10:38;28.30;;;12.60;;
77085;SDS011;66014;53.134;18.006;2023-03-05T13:13:05;45.20;;;23.20;;
77085;SDS011;66014;53.134;18.006;2023-03-05T13:15:30;13.60;;;6.80;;
77085;SDS011;66014;53.134;18.006;2023-03-05T13:17:58;19.10;;;9.10;;
77085;SDS011;66014;53.134;18.006;2023-03-05T13:28:20;18.60;;;10.90;;
77085;SDS011;66014;53.134;18.006;2023-03-05T13:31:29;22.20;;;11.50;;
77085;SDS011;66014;53.134;18.006;2023-03-05T13:33:50;9.80;;;5.10;;
77085;SDS011;66014;53.134;18.006;2023-03-05T13:36:20;10.00;;;5.40;;
77085;SDS011;66014;53.134;18.006;2023-03-05T13:38:49;11.80;;;8.20;;
77085;SDS011;66014;53.134;18.006;2023-03-05T13:41:17;9.80;;;6.50;;
77085;SDS011;66014;53.134;18.006;2023-03-05T13:43:55;10.10;;;5.10;;
77085;SDS011;66014;53.134;18.006;2023-03-05T13:46:26;13.30;;;9.30;;
77085;SDS011;66014;53.134;18.006;2023-03-05T13:48:58;10.40;;;5.40;;
77085;SDS011;66014;53.134;18.006;2023-03-05T13:51:55;11.90;;;7.40;;
77085;SDS011;66014;53.134;18.006;2023-03-05T13:54:25;13.30;;;7.80;;
77085;SDS011;66014;53.134;18.006;2023-03-05T13:56:56;15.90;;;8.00;;
77085;SDS011;66014;53.134;18.006;2023-03-05T13:59:24;17.10;;;12.30;;
77085;SDS011;66014;53.134;18.006;2023-03-05T14:01:56;12.20;;;9.00;;
77085;SDS011;66014;53.134;18.006;2023-03-05T14:04:28;8.40;;;4.70;;
77085;SDS011;66014;53.134;18.006;2023-03-05T14:07:04;19.80;;;11.30;;
77085;SDS011;66014;53.134;18.006;2023-03-05T14:12:23;10.20;;;5.20;;
77085;SDS011;66014;53.134;18.006;2023-03-05T14:17:50;9.50;;;5.30;;
77085;SDS011;66014;53.134;18.006;2023-03-05T14:20:21;6.50;;;3.70;;
77085;SDS011;66014;53.134;18.006;2023-03-05T14:22:55;6.90;;;3.50;;
77085;SDS011;66014;53.134;18.006;2023-03-05T14:25:29;31.50;;;17.80;;
77085;SDS011;66014;53.134;18.006;2023-03-05T14:27:59;17.30;;;8.30;;
77085;SDS011;66014;53.134;18.006;2023-03-05T14:30:26;12.40;;;5.50;;
77085;SDS011;66014;53.134;18.006;2023-03-05T14:32:58;10.30;;;6.00;;
77085;SDS011;66014;53.134;18.006;2023-03-05T14:35:26;12.40;;;7.40;;
77085;SDS011;66014;53.134;18.006;2023-03-05T14:37:56;10.10;;;4.70;;
77085;SDS011;66014;53.134;18.006;2023-03-05T14:40:29;12.30;;;7.10;;
77085;SDS011;66014;53.134;18.006;2023-03-05T14:45:31;9.40;;;5.20;;
77085;SDS011;66014;53.134;18.006;2023-03-05T14:48:06;6.80;;;4.20;;
77085;SDS011;66014;53.134;18.006;2023-03-05T14:50:36;7.30;;;4.30;;
77085;SDS011;66014;53.134;18.006;2023-03-05T14:53:07;7.00;;;3.50;;
77085;SDS011;66014;53.134;18.006;2023-03-05T14:55:39;10.20;;;5.30;;
77085;SDS011;66014;53.134;18.006;2023-03-05T14:58:12;6.70;;;3.50;;
77085;SDS011;66014;53.134;18.006;2023-03-05T15:00:41;8.50;;;5.30;;
77085;SDS011;66014;53.134;18.006;2023-03-05T15:03:11;17.60;;;9.60;;
77085;SDS011;66014;53.134;18.006;2023-03-05T15:05:38;14.00;;;8.10;;
77085;SDS011;66014;53.134;18.006;2023-03-05T15:08:09;17.90;;;8.30;;
77085;SDS011;66014;53.134;18.006;2023-03-05T15:10:39;9.40;;;6.50;;
77085;SDS011;66014;53.134;18.006;2023-03-05T15:13:05;19.30;;;9.60;;
77085;SDS011;66014;53.134;18.006;2023-03-05T15:15:31;18.60;;;10.40;;
77085;SDS011;66014;53.134;18.006;2023-03-05T15:17:57;14.70;;;8.10;;
77085;SDS011;66014;53.134;18.006;2023-03-05T15:20:24;10.60;;;5.50;;
77085;SDS011;66014;53.134;18.006;2023-03-05T15:22:51;18.30;;;8.60;;
77085;SDS011;66014;53.134;18.006;2023-03-05T15:25:18;11.40;;;5.20;;
77085;SDS011;66014;53.134;18.006;2023-03-05T15:27:48;18.20;;;7.90;;
77085;SDS011;66014;53.134;18.006;2023-03-05T15:30:26;19.20;;;8.00;;
77085;SDS011;66014;53.134;18.006;2023-03-05T15:33:00;21.40;;;8.20;;
77085;SDS011;66014;53.134;18.006;2023-03-05T15:35:29;23.90;;;11.00;;
77085;SDS011;66014;53.134;18.006;2023-03-05T15:37:55;25.00;;;10.30;;
77085;SDS011;66014;53.134;18.006;2023-03-05T15:40:23;34.70;;;14.60;;
77085;SDS011;66014;53.134;18.006;2023-03-05T15:42:49;17.50;;;8.50;;
77085;SDS011;66014;53.134;18.006;2023-03-05T15:45:15;20.00;;;8.20;;
77085;SDS011;66014;53.134;18.006;2023-03-05T15:47:41;12.10;;;6.80;;
77085;SDS011;66014;53.134;18.006;2023-03-05T15:50:08;24.80;;;12.90;;
77085;SDS011;66014;53.134;18.006;2023-03-05T15:52:35;13.30;;;6.00;;
77085;SDS011;66014;53.134;18.006;2023-03-05T15:55:02;14.60;;;6.30;;
77085;SDS011;66014;53.134;18.006;2023-03-05T15:57:28;15.80;;;6.10;;
77085;SDS011;66014;53.134;18.006;2023-03-05T15:59:54;15.10;;;6.80;;
77085;SDS011;66014;53.134;18.006;2023-03-05T16:02:21;12.90;;;6.20;;
77085;SDS011;66014;53.134;18.006;2023-03-05T16:04:49;19.50;;;8.80;;
77085;SDS011;66014;53.134;18.006;2023-03-05T16:07:15;18.00;;;8.20;;
77085;SDS011;66014;53.134;18.006;2023-03-05T16:09:41;21.50;;;8.90;;
77085;SDS011;66014;53.134;18.006;2023-03-05T16:12:11;19.90;;;9.60;;
77085;SDS011;66014;53.134;18.006;2023-03-05T16:14:42;14.10;;;6.80;;
77085;SDS011;66014;53.134;18.006;2023-03-05T16:17:09;16.00;;;6.80;;
77085;SDS011;66014;53.134;18.006;2023-03-05T16:19:46;31.70;;;11.20;;
77085;SDS011;66014;53.134;18.006;2023-03-05T16:22:15;18.00;;;6.60;;
77085;SDS011;66014;53.134;18.006;2023-03-05T16:24:41;29.40;;;10.50;;
77085;SDS011;66014;53.134;18.006;2023-03-05T16:27:07;28.60;;;12.20;;
77085;SDS011;66014;53.134;18.006;2023-03-05T16:29:36;19.10;;;8.60;;
77085;SDS011;66014;53.134;18.006;2023-03-05T16:32:03;18.30;;;8.60;;
77085;SDS011;66014;53.134;18.006;2023-03-05T16:34:30;20.50;;;8.40;;
77085;SDS011;66014;53.134;18.006;2023-03-05T16:36:57;21.80;;;10.10;;
77085;SDS011;66014;53.134;18.006;2023-03-05T16:39:25;16.70;;;6.60;;
77085;SDS011;66014;53.134;18.006;2023-03-05T16:41:52;12.00;;;5.40;;
77085;SDS011;66014;53.134;18.006;2023-03-05T16:44:18;8.30;;;4.90;;
77085;SDS011;66014;53.134;18.006;2023-03-05T16:46:44;14.60;;;5.90;;
77085;SDS011;66014;53.134;18.006;2023-03-05T16:49:17;12.20;;;5.70;;
77085;SDS011;66014;53.134;18.006;2023-03-05T16:51:44;19.80;;;9.10;;
77085;SDS011;66014;53.134;18.006;2023-03-05T16:54:10;19.60;;;8.50;;
77085;SDS011;66014;53.134;18.006;2023-03-05T16:56:36;18.00;;;7.40;;
77085;SDS011;66014;53.134;18.006;2023-03-05T16:59:02;17.50;;;8.30;;
77085;SDS011;66014;53.134;18.006;2023-03-05T17:01:28;21.10;;;10.30;;
77085;SDS011;66014;53.134;18.006;2023-03-05T17:03:57;20.00;;;8.40;;
77085;SDS011;66014;53.134;18.006;2023-03-05T17:06:26;25.70;;;10.30;;
77085;SDS011;66014;53.134;18.006;2023-03-05T17:08:53;29.30;;;14.30;;
77085;SDS011;66014;53.134;18.006;2023-03-05T17:11:20;30.40;;;12.60;;
77085;SDS011;66014;53.134;18.006;2023-03-05T17:13:46;30.60;;;14.10;;
77085;SDS011;66014;53.134;18.006;2023-03-05T17:16:13;27.20;;;12.10;;
77085;SDS011;66014;53.134;18.006;2023-03-05T17:18:41;32.30;;;15.20;;
77085;SDS011;66014;53.134;18.006;2023-03-05T17:21:07;41.00;;;16.10;;
77085;SDS011;66014;53.134;18.006;2023-03-05T17:23:34;35.70;;;14.40;;
77085;SDS011;66014;53.134;18.006;2023-03-05T17:26:05;40.50;;;17.70;;
77085;SDS011;66014;53.134;18.006;2023-03-05T17:28:33;38.70;;;15.80;;
77085;SDS011;66014;53.134;18.006;2023-03-05T17:30:59;32.70;;;15.30;;
77085;SDS011;66014;53.134;18.006;2023-03-05T17:33:35;42.70;;;18.40;;
77085;SDS011;66014;53.134;18.006;2023-03-05T17:36:13;36.60;;;16.40;;
77085;SDS011;66014;53.134;18.006;2023-03-05T17:38:41;50.50;;;21.50;;
77085;SDS011;66014;53.134;18.006;2023-03-05T17:41:10;46.70;;;22.40;;
77085;SDS011;66014;53.134;18.006;2023-03-05T17:43:36;24.40;;;11.40;;
77085;SDS011;66014;53.134;18.006;2023-03-05T17:46:02;31.90;;;15.60;;
77085;SDS011;66014;53.134;18.006;2023-03-05T17:48:28;38.00;;;18.00;;
77085;SDS011;66014;53.134;18.006;2023-03-05T17:50:55;24.60;;;11.80;;
77085;SDS011;66014;53.134;18.006;2023-03-05T17:53:21;27.00;;;12.70;;
77085;SDS011;66014;53.134;18.006;2023-03-05T17:55:47;42.30;;;18.80;;
77085;SDS011;66014;53.134;18.006;2023-03-05T17:58:13;36.60;;;17.80;;
77085;SDS011;66014;53.134;18.006;2023-03-05T18:00:39;50.80;;;24.80;;
77085;SDS011;66014;53.134;18.006;2023-03-05T18:03:05;73.40;;;30.10;;
77085;SDS011;66014;53.134;18.006;2023-03-05T18:06:31;44.60;;;24.20;;
77085;SDS011;66014;53.134;18.006;2023-03-05T18:08:57;40.50;;;20.50;;